Time;durP1;ratioP1;P1;durP2;ratioP2;P2;SDS_P1;SDS_P2;PMS_P1;PMS_P2;Temp;Humidity;BMP_temperature;BMP_pressure;BME280_temperature;BME280_humidity;BME280_pressure;Samples;Min_cycle;Max_cycle;Signal;HPM_P1;HPM_P2
2021/09/11 00:00:30;;;;;;;;;;;;;;;;;;5084779;28;19924;-68
2021/09/11 00:02:57;;;;;;;;;;;;;;;;;;5093404;28;19930;-66
2021/09/11 00:05:24;;;;;;;;;;;;;;;;;;5086500;28;19928;-67
2021/09/11 00:07:51;;;;;;;;;;;;;;;;;;5086193;28;20347;-67
2021/09/11 00:10:18;;;;;;;;;;;;;;;;;;5084224;28;19931;-67
2021/09/11 00:12:45;;;;;;;;;;;;;;;;;;5091192;28;19924;-67
2021/09/11 00:15:12;;;;;;;;;;;;;;;;;;5088607;28;20376;-68
2021/09/11 00:17:39;;;;;;;;;;;;;;;;;;5087992;28;19930;-67
2021/09/11 00:20:06;;;;;;;;;;;;;;;;;;5094737;28;19924;-67
2021/09/11 00:22:33;;;;;;;;;;;;;;;;;;5089403;28;19924;-66
2021/09/11 00:25:00;;;;;;;;;;;;;;;;;;5084262;28;19971;-65
2021/09/11 00:27:27;;;;;;;;;;;;;;;;;;5087128;28;19928;-67
2021/09/11 00:29:54;;;;;;;;;;;;;;;;;;5083562;28;20352;-66
2021/09/11 00:32:21;;;;;;;;;;;;;;;;;;5090073;28;19924;-67
2021/09/11 00:34:48;;;;;;;;;;;;;;;;;;5092346;28;19930;-67
2021/09/11 00:37:15;;;;;;;;;;;;;;;;;;5089736;28;20295;-68
2021/09/11 00:39:42;;;;;;;;;;;;;;;;;;5092714;28;20003;-65
2021/09/11 00:42:09;;;;;;;;;;;;;;;;;;5090693;28;19928;-67
2021/09/11 00:44:36;;;;;;;;;;;;;;;;;;5088900;28;20011;-65
2021/09/11 00:47:03;;;;;;;;;;;;;;;;;;5089626;28;20051;-66
2021/09/11 00:49:30;;;;;;;;;;;;;;;;;;5093847;28;19924;-67
2021/09/11 00:51:57;;;;;;;;;;;;;;;;;;5087559;28;19935;-66
2021/09/11 00:54:24;;;;;;;;;;;;;;;;;;5094007;28;19936;-67
2021/09/11 00:56:51;;;;;;;;;;;;;;;;;;5091243;28;20045;-66
2021/09/11 00:59:18;;;;;;;;;;;;;;;;;;5092061;28;19923;-70
2021/09/11 01:01:45;;;;;;;;;;;;;;;;;;5089086;28;19930;-67
2021/09/11 01:04:12;;;;;;;;;;;;;;;;;;5096355;28;19925;-67
2021/09/11 01:06:38;;;;;;;;;;;;;;;;;;5094202;28;19942;-65
2021/09/11 01:09:05;;;;;;;;;;;;;;;;;;5090882;28;19935;-70
2021/09/11 01:11:32;;;;;;;;;;;;;;;;;;5097676;28;19930;-66
2021/09/11 01:13:59;;;;;;;;;;;;;;;;;;5095553;28;19924;-66
2021/09/11 01:16:28;;;;;;;;;;;;;;;;;;5088499;28;20324;-65
2021/09/11 01:18:55;;;;;;;;;;;;;;;;;;5091557;28;19930;-66
2021/09/11 01:21:21;;;;;;;;;;;;;;;;;;5084447;28;20320;-66
2021/09/11 01:23:48;;;;;;;;;;;;;;;;;;5087818;28;19925;-66
2021/09/11 01:26:15;;;;;;;;;;;;;;;;;;5085485;28;19925;-67
2021/09/11 01:28:42;;;;;;;;;;;;;;;;;;5097456;28;19931;-67
2021/09/11 01:31:09;;;;;;;;;;;;;;;;;;5087558;28;19924;-66
2021/09/11 01:33:36;;;;;;;;;;;;;;;;;;5093215;28;19935;-66
2021/09/11 01:36:03;;;;;;;;;;;;;;;;;;5090558;28;19930;-67
2021/09/11 01:38:30;;;;;;;;;;;;;;;;;;5093536;28;20315;-66
2021/09/11 01:40:57;;;;;;;;;;;;;;;;;;5084690;28;19932;-66
2021/09/11 01:43:24;;;;;;;;;;;;;;;;;;5090228;28;19931;-68
2021/09/11 01:45:52;;;;;;;;;;;;;;;;;;5090735;28;19935;-67
2021/09/11 01:48:19;;;;;;;;;;;;;;;;;;5097762;28;19923;-67
2021/09/11 01:50:45;;;;;;;;;;;;;;;;;;5087777;28;19924;-67
2021/09/11 01:53:12;;;;;;;;;;;;;;;;;;5091615;28;19933;-67
2021/09/11 01:55:39;;;;;;;;;;;;;;;;;;5088110;28;20377;-65
2021/09/11 01:58:06;;;;;;;;;;;;;;;;;;5087141;28;20304;-65
2021/09/11 02:00:33;;;;;;;;;;;;;;;;;;5089615;28;19931;-67
2021/09/11 02:03:00;;;;;;;;;;;;;;;;;;5084679;28;19924;-66
2021/09/11 02:05:27;;;;;;;;;;;;;;;;;;5086450;28;20477;-67
2021/09/11 02:07:54;;;;;;;;;;;;;;;;;;5090906;28;19960;-65
2021/09/11 02:10:21;;;;;;;;;;;;;;;;;;5089771;28;19925;-65
2021/09/11 02:12:48;;;;;;;;;;;;;;;;;;5088457;28;19935;-66
2021/09/11 02:15:15;;;;;;;;;;;;;;;;;;5090128;28;19930;-69
2021/09/11 02:17:42;;;;;;;;;;;;;;;;;;5086644;28;20316;-66
2021/09/11 02:20:09;;;;;;;;;;;;;;;;;;5096197;28;20375;-68
2021/09/11 02:22:35;;;;;;;;;;;;;;;;;;5092975;28;19932;-65
2021/09/11 02:25:02;;;;;;;;;;;;;;;;;;5090002;28;19947;-65
2021/09/11 02:27:29;;;;;;;;;;;;;;;;;;5089363;28;20031;-65
2021/09/11 02:29:56;;;;;;;;;;;;;;;;;;5086171;28;19931;-65
2021/09/11 02:32:23;;;;;;;;;;;;;;;;;;5088515;28;19924;-66
2021/09/11 02:34:50;;;;;;;;;;;;;;;;;;5092317;28;19924;-65
2021/09/11 02:37:17;;;;;;;;;;;;;;;;;;5086795;28;20386;-65
2021/09/11 02:39:44;;;;;;;;;;;;;;;;;;5094442;28;19930;-64
2021/09/11 02:42:11;;;;;;;;;;;;;;;;;;5087171;28;19924;-65
2021/09/11 02:44:38;;;;;;;;;;;;;;;;;;5082716;28;19932;-65
2021/09/11 02:47:05;;;;;;;;;;;;;;;;;;5091657;28;20399;-66
2021/09/11 02:49:32;;;;;;;;;;;;;;;;;;5085692;28;20345;-65
2021/09/11 02:51:59;;;;;;;;;;;;;;;;;;5094879;28;19931;-66
2021/09/11 02:54:26;;;;;;;;;;;;;;;;;;5094691;28;19924;-66
2021/09/11 02:56:53;;;;;;;;;;;;;;;;;;5086632;28;20319;-67
2021/09/11 02:59:20;;;;;;;;;;;;;;;;;;5085010;28;19932;-66
2021/09/11 03:01:47;;;;;;;;;;;;;;;;;;5086514;28;19930;-66
2021/09/11 03:04:13;;;;;;;;;;;;;;;;;;5085244;28;20007;-67
2021/09/11 03:06:40;;;;;;;;;;;;;;;;;;5088511;28;19929;-66
2021/09/11 03:09:07;;;;;;;;;;;;;;;;;;5086665;28;19927;-68
2021/09/11 03:11:34;;;;;;;;;;;;;;;;;;5092487;28;20299;-66
2021/09/11 03:14:01;;;;;;;;;;;;;;;;;;5086180;28;19924;-68
2021/09/11 03:16:28;;;;;;;;;;;;;;;;;;5088962;28;19928;-67
2021/09/11 03:18:55;;;;;;;;;;;;;;;;;;5091553;28;19928;-67
2021/09/11 03:21:22;;;;;;;;;;;;;;;;;;5085606;28;20016;-66
2021/09/11 03:23:49;;;;;;;;;;;;;;;;;;5088269;28;20401;-66
2021/09/11 03:26:16;;;;;;;;;;;;;;;;;;5088458;28;19924;-66
2021/09/11 03:28:43;;;;;;;;;;;;;;;;;;5093003;28;19928;-66
2021/09/11 03:31:10;;;;;;;;;;;;;;;;;;5087876;28;19924;-66
2021/09/11 03:33:37;;;;;;;;;;;;;;;;;;5089749;28;19932;-66
2021/09/11 03:36:04;;;;;;;;;;;;;;;;;;5083147;28;19924;-68
2021/09/11 03:38:31;;;;;;;;;;;;;;;;;;5095522;28;20401;-66
2021/09/11 03:40:58;;;;;;;;;;;;;;;;;;5088653;28;19934;-66
2021/09/11 03:43:24;;;;;;;;;;;;;;;;;;5083852;28;19931;-67
2021/09/11 03:45:51;;;;;;;;;;;;;;;;;;5095260;28;20376;-68
2021/09/11 03:48:18;;;;;;;;;;;;;;;;;;5090435;28;19924;-68
2021/09/11 03:50:45;;;;;;;;;;;;;;;;;;5087442;28;19932;-66
2021/09/11 03:53:12;;;;;;;;;;;;;;;;;;5087715;28;19924;-68
2021/09/11 03:55:39;;;;;;;;;;;;;;;;;;5093217;28;20329;-66
2021/09/11 03:58:08;;;;;;;;;;;;;;;;;;5096147;28;19924;-66
2021/09/11 04:00:35;;;;;;;;;;;;;;;;;;5084009;28;19978;-68
2021/09/11 04:03:01;;;;;;;;;;;;;;;;;;5086168;28;20002;-68
2021/09/11 04:05:28;;;;;;;;;;;;;;;;;;5085896;28;20596;-67
2021/09/11 04:07:55;;;;;;;;;;;;;;;;;;5087133;28;19924;-68
2021/09/11 04:10:22;;;;;;;;;;;;;;;;;;5084695;28;19924;-67
2021/09/11 04:12:49;;;;;;;;;;;;;;;;;;5082400;28;19924;-68
2021/09/11 04:15:16;;;;;;;;;;;;;;;;;;5091739;28;19924;-68
2021/09/11 04:17:43;;;;;;;;;;;;;;;;;;5093584;28;19924;-68
2021/09/11 04:20:10;;;;;;;;;;;;;;;;;;5090114;28;19924;-67
2021/09/11 04:22:37;;;;;;;;;;;;;;;;;;5089078;28;20073;-66
2021/09/11 04:25:04;;;;;;;;;;;;;;;;;;5087112;28;19931;-68
2021/09/11 04:27:31;;;;;;;;;;;;;;;;;;5095666;28;19928;-67
2021/09/11 04:29:58;;;;;;;;;;;;;;;;;;5098033;28;20331;-67
2021/09/11 04:32:25;;;;;;;;;;;;;;;;;;5088304;28;19965;-67
2021/09/11 04:34:52;;;;;;;;;;;;;;;;;;5090961;28;20418;-67
2021/09/11 04:37:19;;;;;;;;;;;;;;;;;;5091912;28;19924;-67
2021/09/11 04:39:46;;;;;;;;;;;;;;;;;;5094807;28;19958;-68
2021/09/11 04:42:13;;;;;;;;;;;;;;;;;;5089899;28;19924;-67
2021/09/11 04:44:40;;;;;;;;;;;;;;;;;;5087800;28;19925;-67
2021/09/11 04:47:07;;;;;;;;;;;;;;;;;;5095095;28;19924;-67
2021/09/11 04:49:34;;;;;;;;;;;;;;;;;;5090801;28;19930;-68
2021/09/11 04:52:01;;;;;;;;;;;;;;;;;;5084660;28;19924;-67
2021/09/11 04:54:28;;;;;;;;;;;;;;;;;;5089174;28;20200;-67
2021/09/11 04:56:55;;;;;;;;;;;;;;;;;;5092704;28;19931;-67
2021/09/11 04:59:22;;;;;;;;;;;;;;;;;;5096534;28;20388;-67
2021/09/11 05:01:48;;;;;;;;;;;;;;;;;;5090743;28;20299;-67
2021/09/11 05:04:15;;;;;;;;;;;;;;;;;;5090804;28;19932;-67
2021/09/11 05:06:42;;;;;;;;;;;;;;;;;;5087445;28;20307;-67
2021/09/11 05:09:09;;;;;;;;;;;;;;;;;;5088559;28;20015;-67
2021/09/11 05:11:36;;;;;;;;;;;;;;;;;;5093973;28;19924;-68
2021/09/11 05:14:03;;;;;;;;;;;;;;;;;;5092150;28;20360;-66
2021/09/11 05:16:30;;;;;;;;;;;;;;;;;;5089223;28;20470;-67
2021/09/11 05:18:57;;;;;;;;;;;;;;;;;;5099326;28;19946;-66
2021/09/11 05:21:24;;;;;;;;;;;;;;;;;;5090532;28;19932;-67
2021/09/11 05:23:51;;;;;;;;;;;;;;;;;;5092356;28;20292;-66
2021/09/11 05:26:18;;;;;;;;;;;;;;;;;;5090211;28;19924;-66
2021/09/11 05:28:45;;;;;;;;;;;;;;;;;;5089577;28;19924;-68
2021/09/11 05:31:12;;;;;;;;;;;;;;;;;;5087511;28;19932;-67
2021/09/11 05:33:39;;;;;;;;;;;;;;;;;;5083353;28;20292;-68
2021/09/11 05:36:06;;;;;;;;;;;;;;;;;;5092453;28;19929;-68
2021/09/11 05:38:33;;;;;;;;;;;;;;;;;;5088393;28;19993;-68
2021/09/11 05:41:01;;;;;;;;;;;;;;;;;;5090355;28;19997;-66
2021/09/11 05:43:28;;;;;;;;;;;;;;;;;;5085935;28;20015;-67
2021/09/11 05:45:55;;;;;;;;;;;;;;;;;;5083471;28;19959;-66
2021/09/11 05:48:22;;;;;;;;;;;;;;;;;;5101514;28;19967;-67
2021/09/11 05:50:49;;;;;;;;;;;;;;;;;;5087307;28;19935;-67
2021/09/11 05:53:16;;;;;;;;;;;;;;;;;;5092954;28;20440;-68
2021/09/11 05:55:42;;;;;;;;;;;;;;;;;;5090306;28;19932;-66
2021/09/11 05:58:09;;;;;;;;;;;;;;;;;;5084228;28;19924;-65
2021/09/11 06:00:36;;;;;;;;;;;;;;;;;;5086644;28;19931;-66
2021/09/11 06:03:03;;;;;;;;;;;;;;;;;;5085979;28;19924;-66
2021/09/11 06:05:31;;;;;;;;;;;;;;;;;;5089003;28;19925;-66
2021/09/11 06:07:58;;;;;;;;;;;;;;;;;;5091703;28;19923;-66
2021/09/11 06:10:25;;;;;;;;;;;;;;;;;;5093757;28;20354;-66
2021/09/11 06:12:52;;;;;;;;;;;;;;;;;;5090536;28;19924;-66
2021/09/11 06:15:19;;;;;;;;;;;;;;;;;;5088448;28;19928;-67
2021/09/11 06:17:46;;;;;;;;;;;;;;;;;;5089822;28;19935;-66
2021/09/11 06:20:13;;;;;;;;;;;;;;;;;;5086957;28;19934;-67
2021/09/11 06:22:40;;;;;;;;;;;;;;;;;;5086277;28;19964;-66
2021/09/11 06:25:07;;;;;;;;;;;;;;;;;;5091604;28;19924;-67
2021/09/11 06:27:34;;;;;;;;;;;;;;;;;;5087631;28;19959;-67
2021/09/11 06:30:01;;;;;;;;;;;;;;;;;;5089275;28;19924;-67
2021/09/11 06:32:30;;;;;;;;;;;;;;;;;;5087352;28;20505;-66
2021/09/11 06:34:57;;;;;;;;;;;;;;;;;;5083448;28;19928;-67
2021/09/11 06:37:24;;;;;;;;;;;;;;;;;;5091976;28;20467;-66
2021/09/11 06:39:51;;;;;;;;;;;;;;;;;;5088431;28;20049;-67
2021/09/11 06:42:20;;;;;;;;;;;;;;;;;;5097494;28;19928;-66
2021/09/11 06:44:47;;;;;;;;;;;;;;;;;;5089398;28;19924;-67
2021/09/11 06:47:14;;;;;;;;;;;;;;;;;;5091654;28;19924;-65
2021/09/11 06:49:41;;;;;;;;;;;;;;;;;;5084477;28;19924;-66
2021/09/11 06:52:08;;;;;;;;;;;;;;;;;;5090040;28;19928;-65
2021/09/11 06:54:35;;;;;;;;;;;;;;;;;;5087906;28;19946;-67
2021/09/11 06:57:02;;;;;;;;;;;;;;;;;;5089843;28;19924;-66
2021/09/11 06:59:29;;;;;;;;;;;;;;;;;;5097151;28;19928;-67
2021/09/11 07:01:56;;;;;;;;;;;;;;;;;;5084881;28;20391;-66
2021/09/11 07:04:23;;;;;;;;;;;;;;;;;;5084939;28;20402;-68
2021/09/11 07:06:50;;;;;;;;;;;;;;;;;;5097328;28;20014;-67
2021/09/11 07:09:17;;;;;;;;;;;;;;;;;;5081978;28;21381;-66
2021/09/11 07:11:44;;;;;;;;;;;;;;;;;;5083204;28;19925;-68
2021/09/11 07:14:13;;;;;;;;;;;;;;;;;;5092343;28;19924;-67
2021/09/11 07:16:40;;;;;;;;;;;;;;;;;;5092707;28;19936;-65
2021/09/11 07:19:07;;;;;;;;;;;;;;;;;;5093215;28;20422;-67
2021/09/11 07:21:34;;;;;;;;;;;;;;;;;;5086708;28;20000;-66
2021/09/11 07:24:01;;;;;;;;;;;;;;;;;;5088348;28;19977;-68
2021/09/11 07:26:28;;;;;;;;;;;;;;;;;;5096431;28;19993;-68
2021/09/11 07:28:55;;;;;;;;;;;;;;;;;;5092394;28;20402;-66
2021/09/11 07:31:22;;;;;;;;;;;;;;;;;;5088395;28;19928;-67
2021/09/11 07:33:49;;;;;;;;;;;;;;;;;;5087672;28;19950;-67
2021/09/11 07:36:16;;;;;;;;;;;;;;;;;;5089436;28;19925;-66
2021/09/11 07:38:43;;;;;;;;;;;;;;;;;;5090008;28;19994;-67
2021/09/11 07:41:10;;;;;;;;;;;;;;;;;;5086597;28;20019;-66
2021/09/11 07:43:37;;;;;;;;;;;;;;;;;;5089640;28;19924;-66
2021/09/11 07:46:04;;;;;;;;;;;;;;;;;;5098314;28;19924;-66
2021/09/11 07:48:31;;;;;;;;;;;;;;;;;;5093489;28;19924;-66
2021/09/11 07:50:58;;;;;;;;;;;;;;;;;;5082746;28;19932;-66
2021/09/11 07:53:25;;;;;;;;;;;;;;;;;;5099966;28;20007;-66
2021/09/11 07:55:52;;;;;;;;;;;;;;;;;;5097055;28;19924;-66
2021/09/11 07:58:19;;;;;;;;;;;;;;;;;;5096177;28;19963;-65
2021/09/11 08:00:46;;;;;;;;;;;;;;;;;;5090949;28;20032;-66
2021/09/11 08:03:13;;;;;;;;;;;;;;;;;;5100057;28;19924;-66
2021/09/11 08:05:40;;;;;;;;;;;;;;;;;;5087642;28;20399;-66
2021/09/11 08:08:07;;;;;;;;;;;;;;;;;;5089875;28;20379;-67
2021/09/11 08:10:34;;;;;;;;;;;;;;;;;;5094900;28;19978;-66
2021/09/11 08:13:01;;;;;;;;;;;;;;;;;;5091791;28;20379;-66
2021/09/11 08:15:28;;;;;;;;;;;;;;;;;;5092460;28;19928;-65
2021/09/11 08:17:55;;;;;;;;;;;;;;;;;;5090280;28;19932;-66
2021/09/11 08:20:22;;;;;;;;;;;;;;;;;;5095924;28;19928;-66
2021/09/11 08:22:49;;;;;;;;;;;;;;;;;;5092311;28;19931;-65
2021/09/11 08:25:16;;;;;;;;;;;;;;;;;;5092098;28;19928;-66
2021/09/11 08:27:43;;;;;;;;;;;;;;;;;;5096401;28;19924;-66
2021/09/11 08:30:10;;;;;;;;;;;;;;;;;;5095464;28;19947;-67
2021/09/11 08:32:38;;;;;;;;;;;;;;;;;;5094793;28;20273;-66
2021/09/11 08:35:05;;;;;;;;;;;;;;;;;;5093444;28;19969;-66
2021/09/11 08:37:32;;;;;;;;;;;;;;;;;;5091651;28;20309;-67
2021/09/11 08:40:00;;;;;;;;;;;;;;;;;;5091860;28;19934;-66
2021/09/11 08:42:27;;;;;;;;;;;;;;;;;;5088241;28;19998;-66
2021/09/11 08:44:54;;;;;;;;;;;;;;;;;;5093461;28;19924;-66
2021/09/11 08:47:22;;;;;;;;;;;;;;;;;;5090680;28;19924;-66
2021/09/11 08:49:49;;;;;;;;;;;;;;;;;;5093498;28;20170;-67
2021/09/11 08:52:16;;;;;;;;;;;;;;;;;;5092176;28;19925;-66
2021/09/11 08:54:47;;;;;;;;;;;;;;;;;;5099501;28;19971;-66
2021/09/11 08:57:14;;;;;;;;;;;;;;;;;;5096316;28;19935;-66
2021/09/11 08:59:41;;;;;;;;;;;;;;;;;;5094722;28;19982;-66
2021/09/11 09:02:09;;;;;;;;;;;;;;;;;;5085324;28;19925;-66
2021/09/11 09:04:36;;;;;;;;;;;;;;;;;;5093956;28;19924;-65
2021/09/11 09:07:04;;;;;;;;;;;;;;;;;;5097178;28;19928;-65
2021/09/11 09:09:31;;;;;;;;;;;;;;;;;;5084868;28;20019;-65
2021/09/11 09:11:58;;;;;;;;;;;;;;;;;;5087392;28;20324;-66
2021/09/11 09:14:26;;;;;;;;;;;;;;;;;;5088496;28;19924;-65
2021/09/11 09:16:53;;;;;;;;;;;;;;;;;;5097106;28;19923;-65
2021/09/11 09:19:20;;;;;;;;;;;;;;;;;;5095687;28;20390;-65
2021/09/11 09:21:47;;;;;;;;;;;;;;;;;;5093275;28;19924;-67
2021/09/11 09:24:14;;;;;;;;;;;;;;;;;;5088810;28;19943;-67
2021/09/11 09:26:41;;;;;;;;;;;;;;;;;;5088887;28;19999;-67
2021/09/11 09:29:08;;;;;;;;;;;;;;;;;;5086349;28;20052;-67
2021/09/11 09:31:35;;;;;;;;;;;;;;;;;;5094564;28;20320;-67
2021/09/11 09:34:02;;;;;;;;;;;;;;;;;;5088287;28;20037;-67
2021/09/11 09:36:29;;;;;;;;;;;;;;;;;;5095302;28;19924;-67
2021/09/11 09:38:56;;;;;;;;;;;;;;;;;;5093731;28;20315;-67
2021/09/11 09:41:23;;;;;;;;;;;;;;;;;;5085289;28;19933;-66
2021/09/11 09:43:50;;;;;;;;;;;;;;;;;;5108271;22;20310;-71
2021/09/11 09:46:17;;;;;;;;;;;;;;;;;;5091838;28;20279;-70
2021/09/11 09:48:44;;;;;;;;;;;;;;;;;;5089127;28;19932;-70
2021/09/11 09:51:11;;;;;;;;;;;;;;;;;;5091552;28;19924;-71
2021/09/11 09:53:38;;;;;;;;;;;;;;;;;;5089968;28;19964;-70
2021/09/11 09:56:05;;;;;;;;;;;;;;;;;;5091158;28;19924;-71
2021/09/11 09:58:32;;;;;;;;;;;;;;;;;;5092043;28;20292;-71
2021/09/11 10:00:59;;;;;;;;;;;;;;;;;;5088146;28;19924;-72
2021/09/11 10:03:26;;;;;;;;;;;;;;;;;;5091150;28;19930;-72
2021/09/11 10:05:53;;;;;;;;;;;;;;;;;;5090945;28;19924;-71
2021/09/11 10:08:20;;;;;;;;;;;;;;;;;;5089722;28;20334;-72
2021/09/11 10:10:47;;;;;;;;;;;;;;;;;;5090529;28;19924;-71
2021/09/11 10:13:15;;;;;;;;;;;;;;;;;;5091131;28;19928;-72
2021/09/11 10:15:42;;;;;;;;;;;;;;;;;;5091294;28;19924;-72
2021/09/11 10:18:09;;;;;;;;;;;;;;;;;;5091478;28;19931;-71
2021/09/11 10:20:36;;;;;;;;;;;;;;;;;;5091037;28;20008;-71
2021/09/11 10:23:03;;;;;;;;;;;;;;;;;;5089223;28;19924;-71
2021/09/11 10:25:30;;;;;;;;;;;;;;;;;;5090664;28;19924;-71
2021/09/11 10:27:57;;;;;;;;;;;;;;;;;;5091115;28;19924;-71
2021/09/11 10:30:24;;;;;;;;;;;;;;;;;;5090103;28;19928;-71
2021/09/11 10:32:50;;;;;;;;;;;;;;;;;;5084754;28;20019;-70
2021/09/11 10:35:17;;;;;;;;;;;;;;;;;;5090377;28;19946;-70
2021/09/11 10:37:44;;;;;;;;;;;;;;;;;;5091488;28;19965;-72
2021/09/11 10:40:11;;;;;;;;;;;;;;;;;;5090274;28;20447;-71
2021/09/11 10:42:38;;;;;;;;;;;;;;;;;;5087520;28;19934;-71
2021/09/11 10:45:05;;;;;;;;;;;;;;;;;;5089075;28;19932;-71
2021/09/11 10:47:32;;;;;;;;;;;;;;;;;;5095138;28;19924;-71
2021/09/11 10:49:59;;;;;;;;;;;;;;;;;;5088486;28;19924;-71
2021/09/11 10:52:26;;;;;;;;;;;;;;;;;;5091068;28;20128;-72
2021/09/11 10:54:53;;;;;;;;;;;;;;;;;;5087764;28;19925;-72
2021/09/11 10:57:20;;;;;;;;;;;;;;;;;;5087257;28;19924;-72
2021/09/11 10:59:47;;;;;;;;;;;;;;;;;;5090165;28;20015;-72
2021/09/11 11:02:14;;;;;;;;;;;;;;;;;;5091212;28;20415;-68
2021/09/11 11:04:41;;;;;;;;;;;;;;;;;;5087325;28;19939;-67
2021/09/11 11:07:08;;;;;;;;;;;;;;;;;;5090466;28;20007;-67
2021/09/11 11:09:35;;;;;;;;;;;;;;;;;;5088697;28;19928;-67
2021/09/11 11:12:03;;;;;;;;;;;;;;;;;;5088360;28;19924;-67
2021/09/11 11:14:30;;;;;;;;;;;;;;;;;;5087281;28;20275;-68
2021/09/11 11:16:57;;;;;;;;;;;;;;;;;;5085117;28;20299;-68
2021/09/11 11:19:24;;;;;;;;;;;;;;;;;;5092282;28;19928;-67
2021/09/11 11:21:51;;;;;;;;;;;;;;;;;;5091418;28;19924;-68
2021/09/11 11:24:18;;;;;;;;;;;;;;;;;;5086525;28;19935;-67
2021/09/11 11:26:45;;;;;;;;;;;;;;;;;;5088080;28;20015;-66
2021/09/11 11:29:12;;;;;;;;;;;;;;;;;;5091587;28;20307;-67
2021/09/11 11:31:38;;;;;;;;;;;;;;;;;;5095970;28;19923;-66
2021/09/11 11:34:05;;;;;;;;;;;;;;;;;;5089014;28;19928;-69
2021/09/11 11:36:32;;;;;;;;;;;;;;;;;;5085226;28;19931;-67
2021/09/11 11:38:59;;;;;;;;;;;;;;;;;;5088645;28;19930;-66
2021/09/11 11:41:29;;;;;;;;;;;;;;;;;;5087345;28;19933;-66
2021/09/11 11:43:56;;;;;;;;;;;;;;;;;;5087056;28;20022;-66
2021/09/11 11:46:23;;;;;;;;;;;;;;;;;;5087879;28;19924;-65
2021/09/11 11:48:50;;;;;;;;;;;;;;;;;;5088703;28;19924;-66
2021/09/11 11:51:17;;;;;;;;;;;;;;;;;;5089953;28;19924;-66
2021/09/11 11:53:44;;;;;;;;;;;;;;;;;;5089692;28;19934;-66
2021/09/11 11:56:11;;;;;;;;;;;;;;;;;;5089255;28;19930;-67
2021/09/11 11:58:38;;;;;;;;;;;;;;;;;;5088337;28;19931;-67
2021/09/11 12:01:05;;;;;;;;;;;;;;;;;;5090128;28;19924;-67
2021/09/11 12:03:32;;;;;;;;;;;;;;;;;;5086828;28;19924;-67
2021/09/11 12:05:59;;;;;;;;;;;;;;;;;;5088892;28;19928;-67
2021/09/11 12:08:26;;;;;;;;;;;;;;;;;;5090361;28;20316;-67
2021/09/11 12:10:53;;;;;;;;;;;;;;;;;;5089283;28;19931;-67
2021/09/11 12:13:20;;;;;;;;;;;;;;;;;;5088125;28;19924;-67
2021/09/11 12:15:47;;;;;;;;;;;;;;;;;;5086816;28;20022;-68
2021/09/11 12:18:14;;;;;;;;;;;;;;;;;;5089330;28;19924;-69
2021/09/11 12:20:41;;;;;;;;;;;;;;;;;;5087792;28;20384;-69
2021/09/11 12:23:09;;;;;;;;;;;;;;;;;;5086273;28;19947;-69
2021/09/11 12:25:36;;;;;;;;;;;;;;;;;;5088119;28;20384;-68
2021/09/11 12:28:03;;;;;;;;;;;;;;;;;;5095142;28;19939;-69
2021/09/11 12:30:30;;;;;;;;;;;;;;;;;;5088184;28;20390;-69
2021/09/11 12:32:57;;;;;;;;;;;;;;;;;;5089366;28;19924;-68
2021/09/11 12:35:24;;;;;;;;;;;;;;;;;;5092528;28;19946;-68
2021/09/11 12:37:51;;;;;;;;;;;;;;;;;;5093332;28;19928;-67
2021/09/11 12:40:18;;;;;;;;;;;;;;;;;;5093313;28;20398;-67
2021/09/11 12:42:45;;;;;;;;;;;;;;;;;;5095375;28;19932;-68
2021/09/11 12:45:12;;;;;;;;;;;;;;;;;;5093975;28;19935;-68
2021/09/11 12:47:39;;;;;;;;;;;;;;;;;;5091535;28;19924;-68
2021/09/11 12:50:06;;;;;;;;;;;;;;;;;;5085781;28;19935;-68
2021/09/11 12:52:33;;;;;;;;;;;;;;;;;;5084851;28;20392;-69
2021/09/11 12:55:00;;;;;;;;;;;;;;;;;;5093084;28;19938;-67
2021/09/11 12:57:27;;;;;;;;;;;;;;;;;;5089097;28;20311;-68
2021/09/11 12:59:54;;;;;;;;;;;;;;;;;;5092566;28;19955;-67
2021/09/11 13:02:22;;;;;;;;;;;;;;;;;;5089613;28;19924;-67
2021/09/11 13:04:53;;;;;;;;;;;;;;;;;;5088082;28;20370;-67
2021/09/11 13:07:20;;;;;;;;;;;;;;;;;;5090312;28;20011;-68
2021/09/11 13:09:47;;;;;;;;;;;;;;;;;;5089805;28;19934;-68
2021/09/11 13:12:17;;;;;;;;;;;;;;;;;;5092124;28;20319;-68
2021/09/11 13:14:44;;;;;;;;;;;;;;;;;;5089327;28;20019;-68
2021/09/11 13:17:11;;;;;;;;;;;;;;;;;;5090456;28;19924;-66
2021/09/11 13:19:38;;;;;;;;;;;;;;;;;;5087176;28;19924;-68
2021/09/11 13:22:05;;;;;;;;;;;;;;;;;;5090566;28;19931;-68
2021/09/11 13:24:32;;;;;;;;;;;;;;;;;;5085501;28;20572;-68
2021/09/11 13:26:59;;;;;;;;;;;;;;;;;;5089922;28;19928;-69
2021/09/11 13:29:26;;;;;;;;;;;;;;;;;;5084973;28;19934;-68
2021/09/11 13:31:54;;;;;;;;;;;;;;;;;;5087124;28;19981;-68
2021/09/11 13:34:23;;;;;;;;;;;;;;;;;;5089328;28;19924;-68
2021/09/11 13:36:50;;;;;;;;;;;;;;;;;;5088183;28;19928;-66
2021/09/11 13:39:17;;;;;;;;;;;;;;;;;;5090152;28;19924;-67
2021/09/11 13:41:44;;;;;;;;;;;;;;;;;;5090293;28;19944;-68
2021/09/11 13:44:11;;;;;;;;;;;;;;;;;;5085906;28;19924;-68
2021/09/11 13:46:41;;;;;;;;;;;;;;;;;;5088759;28;20290;-67
2021/09/11 13:49:08;;;;;;;;;;;;;;;;;;5092673;28;19932;-68
2021/09/11 13:51:35;;;;;;;;;;;;;;;;;;5092052;28;19924;-67
2021/09/11 13:54:02;;;;;;;;;;;;;;;;;;5089686;28;19924;-67
2021/09/11 13:56:29;;;;;;;;;;;;;;;;;;5091631;28;20292;-68
2021/09/11 13:58:56;;;;;;;;;;;;;;;;;;5090827;28;19929;-67
2021/09/11 14:01:23;;;;;;;;;;;;;;;;;;5089592;28;19931;-68
2021/09/11 14:03:50;;;;;;;;;;;;;;;;;;5090107;28;19924;-68
2021/09/11 14:06:17;;;;;;;;;;;;;;;;;;5089648;28;20023;-67
2021/09/11 14:08:44;;;;;;;;;;;;;;;;;;5086636;28;19925;-67
2021/09/11 14:11:11;;;;;;;;;;;;;;;;;;5087957;28;19924;-68
2021/09/11 14:13:38;;;;;;;;;;;;;;;;;;5090475;28;19934;-68
2021/09/11 14:16:05;;;;;;;;;;;;;;;;;;5083963;28;20298;-67
2021/09/11 14:18:32;;;;;;;;;;;;;;;;;;5088560;28;19931;-68
2021/09/11 14:21:00;;;;;;;;;;;;;;;;;;5088642;28;19931;-68
2021/09/11 14:23:27;;;;;;;;;;;;;;;;;;5088329;28;19932;-67
2021/09/11 14:25:54;;;;;;;;;;;;;;;;;;5089836;28;20398;-67
2021/09/11 14:28:21;;;;;;;;;;;;;;;;;;5089735;28;20308;-67
2021/09/11 14:30:48;;;;;;;;;;;;;;;;;;5089542;28;19924;-67
2021/09/11 14:33:15;;;;;;;;;;;;;;;;;;5088463;28;19932;-67
2021/09/11 14:35:42;;;;;;;;;;;;;;;;;;5087043;28;20314;-67
2021/09/11 14:38:09;;;;;;;;;;;;;;;;;;5082497;28;20031;-67
2021/09/11 14:40:36;;;;;;;;;;;;;;;;;;5085558;28;19947;-67
2021/09/11 14:43:05;;;;;;;;;;;;;;;;;;5087757;28;20403;-66
2021/09/11 14:45:32;;;;;;;;;;;;;;;;;;5090227;28;19924;-67
2021/09/11 14:47:59;;;;;;;;;;;;;;;;;;5087597;28;19924;-67
2021/09/11 14:50:26;;;;;;;;;;;;;;;;;;5088098;28;20384;-67
2021/09/11 14:52:53;;;;;;;;;;;;;;;;;;5086259;28;20015;-66
2021/09/11 14:55:20;;;;;;;;;;;;;;;;;;5081038;28;19924;-67
2021/09/11 14:57:47;;;;;;;;;;;;;;;;;;5090402;28;19930;-67
2021/09/11 15:00:14;;;;;;;;;;;;;;;;;;5087936;28;19931;-67
2021/09/11 15:02:41;;;;;;;;;;;;;;;;;;5089685;28;20122;-67
2021/09/11 15:05:08;;;;;;;;;;;;;;;;;;5083631;28;20303;-67
2021/09/11 15:07:35;;;;;;;;;;;;;;;;;;5089252;28;19924;-67
2021/09/11 15:10:02;;;;;;;;;;;;;;;;;;5087794;28;20305;-67
2021/09/11 15:12:30;;;;;;;;;;;;;;;;;;5087910;28;19924;-67
2021/09/11 15:14:58;;;;;;;;;;;;;;;;;;5085817;28;19967;-67
2021/09/11 15:17:25;;;;;;;;;;;;;;;;;;5086612;28;19929;-65
2021/09/11 15:19:52;;;;;;;;;;;;;;;;;;5085377;28;20281;-66
2021/09/11 15:22:20;;;;;;;;;;;;;;;;;;5086407;28;19924;-66
2021/09/11 15:24:47;;;;;;;;;;;;;;;;;;5082666;28;19928;-66
2021/09/11 15:27:14;;;;;;;;;;;;;;;;;;5086279;28;19928;-67
2021/09/11 15:29:41;;;;;;;;;;;;;;;;;;5085221;28;19930;-67
2021/09/11 15:32:08;;;;;;;;;;;;;;;;;;5084539;28;19928;-68
2021/09/11 15:34:36;;;;;;;;;;;;;;;;;;5085045;28;20387;-67
2021/09/11 15:37:03;;;;;;;;;;;;;;;;;;5087016;28;19924;-67
2021/09/11 15:39:30;;;;;;;;;;;;;;;;;;5086521;28;19930;-67
2021/09/11 15:44:28;;;;;;;;;;;;;;;;;;5036397;28;19932;-66
2021/09/11 15:46:55;;;;;;;;;;;;;;;;;;5037573;28;20447;-67
2021/09/11 15:49:22;;;;;;;;;;;;;;;;;;5030057;28;19957;-67
2021/09/11 15:51:49;;;;;;;;;;;;;;;;;;5037709;28;20035;-66
2021/09/11 15:54:16;;;;;;;;;;;;;;;;;;5057581;28;20344;-67
2021/09/11 15:56:43;;;;;;;;;;;;;;;;;;5054801;28;19933;-66
2021/09/11 15:59:10;;;;;;;;;;;;;;;;;;5054347;28;19932;-67
2021/09/11 16:01:37;;;;;;;;;;;;;;;;;;5058203;28;19924;-67
2021/09/11 16:04:04;;;;;;;;;;;;;;;;;;5059682;28;20380;-67
2021/09/11 16:06:31;;;;;;;;;;;;;;;;;;5061603;28;19924;-67
2021/09/11 16:08:58;;;;;;;;;;;;;;;;;;5065367;28;19925;-67
2021/09/11 16:11:26;;;;;;;;;;;;;;;;;;5061190;28;19935;-67
2021/09/11 16:13:53;;;;;;;;;;;;;;;;;;5063852;28;20392;-67
2021/09/11 16:16:20;;;;;;;;;;;;;;;;;;5060717;28;19932;-68
2021/09/11 16:18:47;;;;;;;;;;;;;;;;;;5060299;28;19932;-68
2021/09/11 16:21:14;;;;;;;;;;;;;;;;;;5061666;28;19956;-68
2021/09/11 16:23:41;;;;;;;;;;;;;;;;;;5062459;28;19950;-68
2021/09/11 16:26:08;;;;;;;;;;;;;;;;;;5062916;28;19947;-68
2021/09/11 16:28:35;;;;;;;;;;;;;;;;;;5063165;28;19925;-68
2021/09/11 16:31:01;;;;;;;;;;;;;;;;;;5060771;28;20012;-68
2021/09/11 16:33:28;;;;;;;;;;;;;;;;;;5062409;28;19959;-68
2021/09/11 16:35:55;;;;;;;;;;;;;;;;;;5058550;28;19928;-68
2021/09/11 16:38:22;;;;;;;;;;;;;;;;;;5061530;28;20393;-68
2021/09/11 16:40:49;;;;;;;;;;;;;;;;;;5061467;28;19960;-67
2021/09/11 16:43:16;;;;;;;;;;;;;;;;;;5062578;28;19928;-67
2021/09/11 16:45:43;;;;;;;;;;;;;;;;;;5059555;28;19933;-67